Braunau, Austria
Current Conditions -  °F | °C
As of 9:20 AM on Friday 19 Dec 2014 (Local Time) from LOWS Reporting Station
Few Clouds Few Clouds  
Wind Chill: 41°   Ceiling: Unl
Heat Index: 46°   Visibility: 6mi
Dew Point: 45°   Wind: 10mph
Humidity: 93%   Direction: 160°SSE
Pressure: 30.12"   Gusts: NA
Location:  48.26°N, 13.04°E
Report Text: LOWS 190820Z 16009KT 9999 FEW004 08/07 Q1020 NOSIG
Loading
Personal Weather Stations






























Interactive Weather Map New forecast layout! Learn more

10-Day Weather Forecast

Advertisements
Track Severe Weather on mobile